CheckWX is a tool to help pilots better visualize weather data.  It is not intended as a substitute for an official pre-flight weather briefing.

20:03:22 UTC

TJNR METAR
Roosevelt Roads Naval Station (Ofstie Field) Airport
Roosevelt Roads, Puerto Rico, USA
Current

40 mins ago

TJNR 161923Z AUTO 05006KT 3SM -RA BR FEW022 BKN037 OVC055 25/23 A3002 RMK AO2 P0011 T02500233
Observed
Feb-16 @ 19:23 UTC
Wind
  • 050° at 6 KTS
Visibility
3 SM
Flight Rules
MVFR
Conditions
Light Rain, Mist
Cloud Levels
  • Few at 2,200' AGL
  • Broken at 3,700' AGL
  • Overcast at 5,500' AGL
Temperature
25°C / 77°F
Dewpoint
23°C / 73°F
Humidity
89%
Altimeter
30.02" Hg
Pressure
1016.62 hPa
Current Rain
0.11"
Previous

54 mins ago

TJNR 161909Z AUTO 09011G20KT 1 3/4SM +RA BR FEW023 BKN034 OVC055 25/23 A3002 RMK AO2 P0005 T02500228
Observed
Feb-16 @ 19:09 UTC
Wind
  • 090° at 11 KTS
  • Gusting to 20 KTS
Visibility
1 3/4 SM
Flight Rules
IFR
Conditions
Heavy Rain, Mist
Cloud Levels
  • Few at 2,300' AGL
  • Broken at 3,400' AGL
  • Overcast at 5,500' AGL
Temperature
25°C / 77°F
Dewpoint
23°C / 73°F
Humidity
89%
Altimeter
30.02" Hg
Pressure
1016.62 hPa
Current Rain
0.05"
Previous

1 hour ago

TJNR 161853Z AUTO 06011KT 5SM -RA FEW035 OVC055 27/22 A3002 RMK AO2 RAB50 SLP165 P0000 T02720222
Observed
Feb-16 @ 18:53 UTC
Wind
  • 060° at 11 KTS
Visibility
5 SM
Flight Rules
MVFR
Conditions
Light Rain
Cloud Levels
  • Few at 3,500' AGL
  • Overcast at 5,500' AGL
Temperature
27°C / 81°F
Dewpoint
22°C / 72°F
Heat Index
29°C / 85°F
Humidity
74%
Altimeter
30.02" Hg
Pressure
1016.62 hPa
Current Rain
0.01"